Tutuzlupinar, Turkey
Current Conditions -  °F | °C
As of 11:20 PM on Sunday 21 Dec 2014 (Local Time) from LTAP Reporting Station
Broken Clouds Broken Clouds  
Wind Chill: 34°   Ceiling: 10000
Heat Index: 34°   Visibility: 6mi
Dew Point: 32°   Wind: 0mph
Humidity: 93%   Direction: NA
Pressure: 29.94"   Gusts: NA
Location:  41.98°N, 35.09°E
Report Text: LTAP 212020Z 00000KT 9999 SCT040 BKN100 01/00 Q1014 NOSIG
Loading
Personal Weather Stations






























Interactive Weather Map New forecast layout! Learn more

10-Day Weather Forecast

Advertisements
Track Severe Weather on mobile